sensor_id;sensor_type;location;lat;lon;timestamp;P1;durP1;ratioP1;P2;durP2;ratioP2
59169;SDS011;52474;52.236;5.114;2023-06-22T00:01:10;5.80;;;5.07;;
59169;SDS011;52474;52.236;5.114;2023-06-22T00:03:36;6.45;;;5.20;;
59169;SDS011;52474;52.236;5.114;2023-06-22T00:06:01;7.93;;;5.45;;
59169;SDS011;52474;52.236;5.114;2023-06-22T00:08:27;9.18;;;6.20;;
59169;SDS011;52474;52.236;5.114;2023-06-22T00:10:53;8.02;;;5.70;;
59169;SDS011;52474;52.236;5.114;2023-06-22T00:13:18;7.43;;;5.63;;
59169;SDS011;52474;52.236;5.114;2023-06-22T00:15:44;7.53;;;5.63;;
59169;SDS011;52474;52.236;5.114;2023-06-22T00:18:10;8.75;;;6.35;;
59169;SDS011;52474;52.236;5.114;2023-06-22T00:20:36;9.48;;;6.45;;
59169;SDS011;52474;52.236;5.114;2023-06-22T00:23:03;8.70;;;6.45;;
59169;SDS011;52474;52.236;5.114;2023-06-22T00:25:36;7.95;;;6.30;;
59169;SDS011;52474;52.236;5.114;2023-06-22T00:28:03;8.95;;;6.57;;
59169;SDS011;52474;52.236;5.114;2023-06-22T00:30:30;9.35;;;6.72;;
59169;SDS011;52474;52.236;5.114;2023-06-22T00:32:56;8.05;;;6.32;;
59169;SDS011;52474;52.236;5.114;2023-06-22T00:35:23;7.03;;;5.90;;
59169;SDS011;52474;52.236;5.114;2023-06-22T00:37:54;6.95;;;5.35;;
59169;SDS011;52474;52.236;5.114;2023-06-22T00:40:32;7.10;;;5.68;;
59169;SDS011;52474;52.236;5.114;2023-06-22T00:42:58;7.78;;;5.70;;
59169;SDS011;52474;52.236;5.114;2023-06-22T00:45:25;7.57;;;5.75;;
59169;SDS011;52474;52.236;5.114;2023-06-22T00:47:51;6.25;;;4.90;;
59169;SDS011;52474;52.236;5.114;2023-06-22T00:50:20;5.78;;;5.18;;
59169;SDS011;52474;52.236;5.114;2023-06-22T00:52:48;5.88;;;4.60;;
59169;SDS011;52474;52.236;5.114;2023-06-22T00:55:17;5.63;;;4.80;;
59169;SDS011;52474;52.236;5.114;2023-06-22T00:57:47;7.15;;;5.50;;
59169;SDS011;52474;52.236;5.114;2023-06-22T01:00:14;9.40;;;5.65;;
59169;SDS011;52474;52.236;5.114;2023-06-22T01:02:42;9.63;;;6.10;;
59169;SDS011;52474;52.236;5.114;2023-06-22T01:05:13;8.90;;;6.32;;
59169;SDS011;52474;52.236;5.114;2023-06-22T01:10:11;7.67;;;6.03;;
59169;SDS011;52474;52.236;5.114;2023-06-22T01:12:48;7.70;;;6.00;;
59169;SDS011;52474;52.236;5.114;2023-06-22T01:15:27;7.38;;;5.75;;
59169;SDS011;52474;52.236;5.114;2023-06-22T01:17:56;7.03;;;5.40;;
59169;SDS011;52474;52.236;5.114;2023-06-22T01:20:24;5.90;;;4.80;;
59169;SDS011;52474;52.236;5.114;2023-06-22T01:23:02;6.50;;;5.28;;
59169;SDS011;52474;52.236;5.114;2023-06-22T01:28:05;7.43;;;5.47;;
59169;SDS011;52474;52.236;5.114;2023-06-22T01:30:43;7.22;;;5.70;;
59169;SDS011;52474;52.236;5.114;2023-06-22T01:33:11;5.85;;;5.20;;
59169;SDS011;52474;52.236;5.114;2023-06-22T01:35:38;6.55;;;5.57;;
59169;SDS011;52474;52.236;5.114;2023-06-22T01:38:05;8.18;;;6.55;;
59169;SDS011;52474;52.236;5.114;2023-06-22T01:40:31;9.50;;;7.18;;
59169;SDS011;52474;52.236;5.114;2023-06-22T01:49:29;14.02;;;8.90;;
59169;SDS011;52474;52.236;5.114;2023-06-22T01:51:56;13.02;;;8.85;;
59169;SDS011;52474;52.236;5.114;2023-06-22T01:54:22;13.15;;;9.63;;
59169;SDS011;52474;52.236;5.114;2023-06-22T01:56:48;12.68;;;9.48;;
59169;SDS011;52474;52.236;5.114;2023-06-22T01:59:19;14.38;;;9.93;;
59169;SDS011;52474;52.236;5.114;2023-06-22T02:02:02;14.88;;;10.50;;
59169;SDS011;52474;52.236;5.114;2023-06-22T02:04:34;14.23;;;10.13;;
59169;SDS011;52474;52.236;5.114;2023-06-22T02:07:05;16.90;;;10.60;;
59169;SDS011;52474;52.236;5.114;2023-06-22T02:09:37;17.42;;;10.07;;
59169;SDS011;52474;52.236;5.114;2023-06-22T02:12:06;17.25;;;11.48;;
59169;SDS011;52474;52.236;5.114;2023-06-22T02:14:34;19.60;;;10.88;;
59169;SDS011;52474;52.236;5.114;2023-06-22T02:17:00;16.50;;;11.38;;
59169;SDS011;52474;52.236;5.114;2023-06-22T02:19:27;16.77;;;12.23;;
59169;SDS011;52474;52.236;5.114;2023-06-22T02:21:52;18.42;;;11.95;;
59169;SDS011;52474;52.236;5.114;2023-06-22T02:24:19;15.65;;;12.43;;
59169;SDS011;52474;52.236;5.114;2023-06-22T02:26:48;17.02;;;11.45;;
59169;SDS011;52474;52.236;5.114;2023-06-22T02:29:14;17.85;;;10.98;;
59169;SDS011;52474;52.236;5.114;2023-06-22T02:31:41;17.15;;;11.30;;
59169;SDS011;52474;52.236;5.114;2023-06-22T02:34:07;14.15;;;10.15;;
59169;SDS011;52474;52.236;5.114;2023-06-22T02:36:33;11.75;;;8.07;;
59169;SDS011;52474;52.236;5.114;2023-06-22T02:38:59;10.95;;;8.07;;
59169;SDS011;52474;52.236;5.114;2023-06-22T02:41:27;10.18;;;8.00;;
59169;SDS011;52474;52.236;5.114;2023-06-22T02:43:55;10.57;;;7.57;;
59169;SDS011;52474;52.236;5.114;2023-06-22T02:46:21;11.32;;;8.13;;
59169;SDS011;52474;52.236;5.114;2023-06-22T02:48:48;10.98;;;8.25;;
59169;SDS011;52474;52.236;5.114;2023-06-22T02:51:14;13.57;;;9.43;;
59169;SDS011;52474;52.236;5.114;2023-06-22T02:53:40;14.57;;;9.68;;
59169;SDS011;52474;52.236;5.114;2023-06-22T02:56:11;14.90;;;10.40;;
59169;SDS011;52474;52.236;5.114;2023-06-22T02:58:38;15.50;;;11.23;;
59169;SDS011;52474;52.236;5.114;2023-06-22T03:01:07;17.73;;;11.83;;
59169;SDS011;52474;52.236;5.114;2023-06-22T03:03:35;17.60;;;11.45;;
59169;SDS011;52474;52.236;5.114;2023-06-22T03:06:00;15.68;;;10.15;;
59169;SDS011;52474;52.236;5.114;2023-06-22T03:08:27;19.25;;;11.35;;
59169;SDS011;52474;52.236;5.114;2023-06-22T03:10:54;21.60;;;13.15;;
59169;SDS011;52474;52.236;5.114;2023-06-22T03:13:20;12.75;;;9.05;;
59169;SDS011;52474;52.236;5.114;2023-06-22T03:15:46;14.30;;;10.13;;
59169;SDS011;52474;52.236;5.114;2023-06-22T03:18:11;13.85;;;9.77;;
59169;SDS011;52474;52.236;5.114;2023-06-22T03:20:37;16.48;;;11.27;;
59169;SDS011;52474;52.236;5.114;2023-06-22T03:23:03;18.42;;;12.98;;
59169;SDS011;52474;52.236;5.114;2023-06-22T03:25:31;16.80;;;10.80;;
59169;SDS011;52474;52.236;5.114;2023-06-22T03:28:00;15.10;;;10.52;;
59169;SDS011;52474;52.236;5.114;2023-06-22T03:30:26;16.63;;;10.90;;
59169;SDS011;52474;52.236;5.114;2023-06-22T03:32:51;13.10;;;9.52;;
59169;SDS011;52474;52.236;5.114;2023-06-22T03:35:17;14.63;;;9.55;;
59169;SDS011;52474;52.236;5.114;2023-06-22T03:37:43;16.45;;;10.73;;
59169;SDS011;52474;52.236;5.114;2023-06-22T03:40:09;16.80;;;12.05;;
59169;SDS011;52474;52.236;5.114;2023-06-22T03:42:35;18.02;;;12.05;;
59169;SDS011;52474;52.236;5.114;2023-06-22T03:45:03;18.38;;;11.27;;
59169;SDS011;52474;52.236;5.114;2023-06-22T03:47:30;21.25;;;11.90;;
59169;SDS011;52474;52.236;5.114;2023-06-22T03:49:57;17.77;;;11.52;;
59169;SDS011;52474;52.236;5.114;2023-06-22T03:52:23;15.93;;;11.93;;
59169;SDS011;52474;52.236;5.114;2023-06-22T03:54:48;23.20;;;14.15;;
59169;SDS011;52474;52.236;5.114;2023-06-22T03:57:14;20.77;;;14.75;;
59169;SDS011;52474;52.236;5.114;2023-06-22T03:59:40;22.98;;;15.35;;
59169;SDS011;52474;52.236;5.114;2023-06-22T04:02:05;21.63;;;14.90;;
59169;SDS011;52474;52.236;5.114;2023-06-22T04:04:31;24.05;;;14.70;;
59169;SDS011;52474;52.236;5.114;2023-06-22T04:06:57;21.90;;;14.32;;
59169;SDS011;52474;52.236;5.114;2023-06-22T04:09:23;24.10;;;15.52;;
59169;SDS011;52474;52.236;5.114;2023-06-22T04:11:48;25.77;;;15.50;;
59169;SDS011;52474;52.236;5.114;2023-06-22T04:14:14;15.02;;;10.30;;
59169;SDS011;52474;52.236;5.114;2023-06-22T04:16:40;14.60;;;10.27;;
59169;SDS011;52474;52.236;5.114;2023-06-22T04:19:05;16.13;;;10.38;;
59169;SDS011;52474;52.236;5.114;2023-06-22T04:21:31;16.25;;;10.88;;
59169;SDS011;52474;52.236;5.114;2023-06-22T04:23:57;16.70;;;11.55;;
59169;SDS011;52474;52.236;5.114;2023-06-22T04:26:22;23.20;;;14.88;;
59169;SDS011;52474;52.236;5.114;2023-06-22T04:28:48;28.60;;;16.85;;
59169;SDS011;52474;52.236;5.114;2023-06-22T04:31:19;27.67;;;17.67;;
59169;SDS011;52474;52.236;5.114;2023-06-22T04:33:45;30.83;;;18.10;;
59169;SDS011;52474;52.236;5.114;2023-06-22T04:36:11;31.02;;;20.83;;
59169;SDS011;52474;52.236;5.114;2023-06-22T04:38:39;38.80;;;22.77;;
59169;SDS011;52474;52.236;5.114;2023-06-22T04:41:05;40.60;;;24.13;;
59169;SDS011;52474;52.236;5.114;2023-06-22T04:43:31;32.55;;;21.80;;
59169;SDS011;52474;52.236;5.114;2023-06-22T04:45:59;36.42;;;23.33;;
59169;SDS011;52474;52.236;5.114;2023-06-22T04:48:31;36.22;;;22.80;;
59169;SDS011;52474;52.236;5.114;2023-06-22T04:51:01;34.47;;;22.85;;
59169;SDS011;52474;52.236;5.114;2023-06-22T04:53:29;35.63;;;22.80;;
59169;SDS011;52474;52.236;5.114;2023-06-22T04:55:56;39.90;;;25.02;;
59169;SDS011;52474;52.236;5.114;2023-06-22T04:58:21;43.42;;;27.55;;
59169;SDS011;52474;52.236;5.114;2023-06-22T05:00:47;43.40;;;26.73;;
59169;SDS011;52474;52.236;5.114;2023-06-22T05:03:13;44.47;;;27.67;;
59169;SDS011;52474;52.236;5.114;2023-06-22T05:05:38;41.97;;;26.98;;
59169;SDS011;52474;52.236;5.114;2023-06-22T05:08:04;42.72;;;27.02;;
59169;SDS011;52474;52.236;5.114;2023-06-22T05:10:32;46.20;;;27.15;;
59169;SDS011;52474;52.236;5.114;2023-06-22T05:12:58;43.20;;;26.33;;
59169;SDS011;52474;52.236;5.114;2023-06-22T05:15:24;40.55;;;26.10;;
59169;SDS011;52474;52.236;5.114;2023-06-22T05:17:53;42.00;;;27.55;;
59169;SDS011;52474;52.236;5.114;2023-06-22T05:20:19;41.95;;;25.73;;
59169;SDS011;52474;52.236;5.114;2023-06-22T05:22:45;47.63;;;28.73;;
59169;SDS011;52474;52.236;5.114;2023-06-22T05:25:10;40.85;;;26.70;;
59169;SDS011;52474;52.236;5.114;2023-06-22T05:27:37;42.72;;;28.00;;
59169;SDS011;52474;52.236;5.114;2023-06-22T05:30:06;38.97;;;26.98;;
59169;SDS011;52474;52.236;5.114;2023-06-22T05:32:32;43.55;;;28.20;;
59169;SDS011;52474;52.236;5.114;2023-06-22T05:34:59;38.70;;;27.02;;
59169;SDS011;52474;52.236;5.114;2023-06-22T05:37:24;40.72;;;26.15;;
59169;SDS011;52474;52.236;5.114;2023-06-22T05:39:50;40.30;;;28.33;;
59169;SDS011;52474;52.236;5.114;2023-06-22T05:42:16;41.63;;;26.52;;
59169;SDS011;52474;52.236;5.114;2023-06-22T05:44:41;39.95;;;27.88;;
59169;SDS011;52474;52.236;5.114;2023-06-22T05:47:07;45.17;;;28.50;;
59169;SDS011;52474;52.236;5.114;2023-06-22T05:49:33;41.95;;;28.60;;
59169;SDS011;52474;52.236;5.114;2023-06-22T05:51:59;41.88;;;27.98;;
59169;SDS011;52474;52.236;5.114;2023-06-22T05:54:25;38.25;;;28.27;;
59169;SDS011;52474;52.236;5.114;2023-06-22T05:56:52;41.70;;;27.02;;
59169;SDS011;52474;52.236;5.114;2023-06-22T05:59:18;38.55;;;27.42;;
59169;SDS011;52474;52.236;5.114;2023-06-22T06:01:44;38.78;;;27.70;;
59169;SDS011;52474;52.236;5.114;2023-06-22T06:04:10;38.53;;;27.60;;
59169;SDS011;52474;52.236;5.114;2023-06-22T06:06:35;40.78;;;27.70;;
59169;SDS011;52474;52.236;5.114;2023-06-22T06:09:05;45.78;;;29.38;;
59169;SDS011;52474;52.236;5.114;2023-06-22T06:11:31;39.88;;;29.35;;
59169;SDS011;52474;52.236;5.114;2023-06-22T06:13:56;42.08;;;29.38;;
59169;SDS011;52474;52.236;5.114;2023-06-22T06:16:22;38.97;;;28.27;;
59169;SDS011;52474;52.236;5.114;2023-06-22T06:18:48;37.17;;;27.88;;
59169;SDS011;52474;52.236;5.114;2023-06-22T06:21:16;35.75;;;25.60;;
59169;SDS011;52474;52.236;5.114;2023-06-22T06:23:42;36.25;;;26.50;;
59169;SDS011;52474;52.236;5.114;2023-06-22T06:26:08;39.20;;;26.15;;
59169;SDS011;52474;52.236;5.114;2023-06-22T06:28:34;38.30;;;27.20;;
59169;SDS011;52474;52.236;5.114;2023-06-22T06:31:00;33.80;;;26.40;;
59169;SDS011;52474;52.236;5.114;2023-06-22T06:33:26;34.60;;;26.15;;
59169;SDS011;52474;52.236;5.114;2023-06-22T06:35:52;38.50;;;27.48;;
59169;SDS011;52474;52.236;5.114;2023-06-22T06:38:17;33.88;;;25.75;;
59169;SDS011;52474;52.236;5.114;2023-06-22T06:40:43;32.05;;;23.85;;
59169;SDS011;52474;52.236;5.114;2023-06-22T06:43:10;33.08;;;24.40;;
59169;SDS011;52474;52.236;5.114;2023-06-22T06:45:36;29.85;;;22.05;;
59169;SDS011;52474;52.236;5.114;2023-06-22T06:48:01;27.27;;;21.25;;
59169;SDS011;52474;52.236;5.114;2023-06-22T06:50:27;29.30;;;21.92;;
59169;SDS011;52474;52.236;5.114;2023-06-22T06:52:53;28.02;;;21.50;;
59169;SDS011;52474;52.236;5.114;2023-06-22T06:55:19;27.98;;;21.75;;
59169;SDS011;52474;52.236;5.114;2023-06-22T06:57:45;24.63;;;19.30;;
59169;SDS011;52474;52.236;5.114;2023-06-22T07:00:13;23.70;;;19.23;;
59169;SDS011;52474;52.236;5.114;2023-06-22T07:02:41;24.00;;;19.38;;
59169;SDS011;52474;52.236;5.114;2023-06-22T07:05:11;23.35;;;18.23;;
59169;SDS011;52474;52.236;5.114;2023-06-22T07:07:37;21.45;;;17.95;;
59169;SDS011;52474;52.236;5.114;2023-06-22T07:10:04;22.08;;;18.15;;
59169;SDS011;52474;52.236;5.114;2023-06-22T07:12:32;26.40;;;18.05;;
59169;SDS011;52474;52.236;5.114;2023-06-22T07:15:02;23.58;;;17.52;;
59169;SDS011;52474;52.236;5.114;2023-06-22T07:17:29;20.25;;;16.17;;
59169;SDS011;52474;52.236;5.114;2023-06-22T07:19:55;18.58;;;15.38;;
59169;SDS011;52474;52.236;5.114;2023-06-22T07:22:20;19.20;;;15.38;;
59169;SDS011;52474;52.236;5.114;2023-06-22T07:24:46;17.58;;;14.48;;
59169;SDS011;52474;52.236;5.114;2023-06-22T07:27:12;19.60;;;15.10;;
59169;SDS011;52474;52.236;5.114;2023-06-22T07:29:37;21.98;;;16.67;;
59169;SDS011;52474;52.236;5.114;2023-06-22T07:32:05;17.20;;;14.48;;
59169;SDS011;52474;52.236;5.114;2023-06-22T07:34:31;17.92;;;14.15;;
59169;SDS011;52474;52.236;5.114;2023-06-22T07:36:58;16.98;;;14.52;;
59169;SDS011;52474;52.236;5.114;2023-06-22T07:39:24;15.27;;;13.05;;
59169;SDS011;52474;52.236;5.114;2023-06-22T07:41:51;16.63;;;12.98;;
59169;SDS011;52474;52.236;5.114;2023-06-22T07:44:17;16.08;;;14.10;;
59169;SDS011;52474;52.236;5.114;2023-06-22T07:46:42;18.90;;;14.25;;
59169;SDS011;52474;52.236;5.114;2023-06-22T07:49:08;15.65;;;13.27;;
59169;SDS011;52474;52.236;5.114;2023-06-22T07:51:34;16.38;;;14.18;;
59169;SDS011;52474;52.236;5.114;2023-06-22T07:54:00;15.98;;;13.93;;
59169;SDS011;52474;52.236;5.114;2023-06-22T07:56:25;16.52;;;14.20;;
59169;SDS011;52474;52.236;5.114;2023-06-22T07:58:51;15.30;;;13.52;;
59169;SDS011;52474;52.236;5.114;2023-06-22T08:01:18;15.55;;;13.65;;
59169;SDS011;52474;52.236;5.114;2023-06-22T08:03:49;15.93;;;13.30;;
59169;SDS011;52474;52.236;5.114;2023-06-22T08:08:40;18.05;;;14.82;;
59169;SDS011;52474;52.236;5.114;2023-06-22T08:11:08;16.65;;;14.15;;
59169;SDS011;52474;52.236;5.114;2023-06-22T08:13:34;14.48;;;12.95;;
59169;SDS011;52474;52.236;5.114;2023-06-22T08:16:00;16.58;;;13.40;;
59169;SDS011;52474;52.236;5.114;2023-06-22T08:18:26;14.88;;;12.70;;
59169;SDS011;52474;52.236;5.114;2023-06-22T08:20:51;17.02;;;15.32;;
59169;SDS011;52474;52.236;5.114;2023-06-22T08:23:18;17.15;;;15.13;;
59169;SDS011;52474;52.236;5.114;2023-06-22T08:25:43;16.50;;;14.77;;
59169;SDS011;52474;52.236;5.114;2023-06-22T08:28:09;15.02;;;13.57;;
59169;SDS011;52474;52.236;5.114;2023-06-22T08:30:35;20.98;;;13.98;;
59169;SDS011;52474;52.236;5.114;2023-06-22T08:33:01;15.10;;;13.50;;
59169;SDS011;52474;52.236;5.114;2023-06-22T08:35:26;15.63;;;14.13;;
59169;SDS011;52474;52.236;5.114;2023-06-22T08:37:52;14.40;;;13.00;;
59169;SDS011;52474;52.236;5.114;2023-06-22T08:40:19;15.23;;;13.63;;
59169;SDS011;52474;52.236;5.114;2023-06-22T08:42:46;14.98;;;13.23;;
59169;SDS011;52474;52.236;5.114;2023-06-22T08:45:12;14.02;;;12.45;;
59169;SDS011;52474;52.236;5.114;2023-06-22T08:47:41;12.15;;;11.00;;
59169;SDS011;52474;52.236;5.114;2023-06-22T08:52:37;14.60;;;11.88;;
59169;SDS011;52474;52.236;5.114;2023-06-22T08:55:05;11.13;;;10.13;;
59169;SDS011;52474;52.236;5.114;2023-06-22T08:57:32;11.75;;;10.65;;
59169;SDS011;52474;52.236;5.114;2023-06-22T08:59:58;12.82;;;11.55;;
59169;SDS011;52474;52.236;5.114;2023-06-22T09:02:24;13.52;;;12.13;;
59169;SDS011;52474;52.236;5.114;2023-06-22T09:04:51;12.05;;;10.88;;
59169;SDS011;52474;52.236;5.114;2023-06-22T09:07:21;10.50;;;9.32;;
59169;SDS011;52474;52.236;5.114;2023-06-22T09:09:48;11.02;;;9.93;;
59169;SDS011;52474;52.236;5.114;2023-06-22T09:12:14;10.52;;;9.30;;
59169;SDS011;52474;52.236;5.114;2023-06-22T09:14:40;11.70;;;9.63;;
59169;SDS011;52474;52.236;5.114;2023-06-22T09:17:06;11.00;;;9.90;;
59169;SDS011;52474;52.236;5.114;2023-06-22T09:19:31;10.85;;;9.75;;
59169;SDS011;52474;52.236;5.114;2023-06-22T09:21:58;11.15;;;9.60;;
59169;SDS011;52474;52.236;5.114;2023-06-22T09:24:24;12.50;;;9.48;;
59169;SDS011;52474;52.236;5.114;2023-06-22T09:26:49;13.35;;;10.48;;
59169;SDS011;52474;52.236;5.114;2023-06-22T09:29:15;11.90;;;10.48;;
59169;SDS011;52474;52.236;5.114;2023-06-22T09:31:41;15.05;;;10.55;;
59169;SDS011;52474;52.236;5.114;2023-06-22T09:34:07;10.00;;;8.98;;
59169;SDS011;52474;52.236;5.114;2023-06-22T09:36:33;11.65;;;8.95;;
59169;SDS011;52474;52.236;5.114;2023-06-22T09:38:59;11.60;;;8.80;;
59169;SDS011;52474;52.236;5.114;2023-06-22T09:41:27;9.57;;;8.13;;
59169;SDS011;52474;52.236;5.114;2023-06-22T09:43:52;9.43;;;8.43;;
59169;SDS011;52474;52.236;5.114;2023-06-22T09:46:18;10.05;;;8.55;;
59169;SDS011;52474;52.236;5.114;2023-06-22T09:48:47;9.93;;;8.52;;
59169;SDS011;52474;52.236;5.114;2023-06-22T09:51:12;10.30;;;8.35;;
59169;SDS011;52474;52.236;5.114;2023-06-22T09:53:38;9.85;;;7.82;;
59169;SDS011;52474;52.236;5.114;2023-06-22T09:56:03;12.30;;;8.50;;
59169;SDS011;52474;52.236;5.114;2023-06-22T09:58:31;10.30;;;7.78;;
59169;SDS011;52474;52.236;5.114;2023-06-22T10:00:57;9.55;;;8.00;;
59169;SDS011;52474;52.236;5.114;2023-06-22T10:03:22;9.38;;;8.35;;
59169;SDS011;52474;52.236;5.114;2023-06-22T10:05:48;10.15;;;7.70;;
59169;SDS011;52474;52.236;5.114;2023-06-22T10:08:13;8.65;;;7.15;;
59169;SDS011;52474;52.236;5.114;2023-06-22T10:10:39;9.95;;;8.70;;
59169;SDS011;52474;52.236;5.114;2023-06-22T10:13:08;8.65;;;7.70;;
59169;SDS011;52474;52.236;5.114;2023-06-22T10:15:35;12.10;;;7.60;;
59169;SDS011;52474;52.236;5.114;2023-06-22T10:18:02;11.30;;;8.70;;
59169;SDS011;52474;52.236;5.114;2023-06-22T10:20:28;9.77;;;8.43;;
59169;SDS011;52474;52.236;5.114;2023-06-22T10:22:54;9.85;;;7.50;;
59169;SDS011;52474;52.236;5.114;2023-06-22T10:25:19;8.55;;;7.40;;
59169;SDS011;52474;52.236;5.114;2023-06-22T10:27:45;10.30;;;7.80;;
59169;SDS011;52474;52.236;5.114;2023-06-22T10:30:11;8.77;;;7.07;;
59169;SDS011;52474;52.236;5.114;2023-06-22T10:32:38;12.07;;;9.02;;
59169;SDS011;52474;52.236;5.114;2023-06-22T10:35:04;9.95;;;7.78;;
59169;SDS011;52474;52.236;5.114;2023-06-22T10:37:30;10.38;;;8.23;;
59169;SDS011;52474;52.236;5.114;2023-06-22T10:39:56;10.00;;;8.95;;
59169;SDS011;52474;52.236;5.114;2023-06-22T10:42:22;12.15;;;9.02;;
59169;SDS011;52474;52.236;5.114;2023-06-22T10:44:47;11.38;;;7.97;;
59169;SDS011;52474;52.236;5.114;2023-06-22T10:47:13;8.77;;;6.85;;
59169;SDS011;52474;52.236;5.114;2023-06-22T10:49:40;9.63;;;7.28;;
59169;SDS011;52474;52.236;5.114;2023-06-22T10:52:06;11.43;;;7.90;;
59169;SDS011;52474;52.236;5.114;2023-06-22T10:54:33;12.00;;;9.00;;
59169;SDS011;52474;52.236;5.114;2023-06-22T10:56:59;13.13;;;8.07;;
59169;SDS011;52474;52.236;5.114;2023-06-22T10:59:25;10.10;;;7.95;;
59169;SDS011;52474;52.236;5.114;2023-06-22T11:01:52;10.73;;;7.75;;
59169;SDS011;52474;52.236;5.114;2023-06-22T11:04:18;9.00;;;7.22;;
59169;SDS011;52474;52.236;5.114;2023-06-22T11:06:44;9.32;;;6.97;;
59169;SDS011;52474;52.236;5.114;2023-06-22T11:09:10;10.95;;;7.15;;
59169;SDS011;52474;52.236;5.114;2023-06-22T11:11:35;8.95;;;6.95;;
59169;SDS011;52474;52.236;5.114;2023-06-22T11:14:01;10.02;;;7.10;;
59169;SDS011;52474;52.236;5.114;2023-06-22T11:16:27;9.88;;;6.60;;
59169;SDS011;52474;52.236;5.114;2023-06-22T11:18:53;9.05;;;6.32;;
59169;SDS011;52474;52.236;5.114;2023-06-22T11:21:18;10.10;;;6.90;;
59169;SDS011;52474;52.236;5.114;2023-06-22T11:23:44;8.20;;;6.68;;
59169;SDS011;52474;52.236;5.114;2023-06-22T11:26:10;9.15;;;7.43;;
59169;SDS011;52474;52.236;5.114;2023-06-22T11:28:36;9.82;;;7.55;;
59169;SDS011;52474;52.236;5.114;2023-06-22T11:31:02;9.38;;;7.35;;
59169;SDS011;52474;52.236;5.114;2023-06-22T11:33:28;10.75;;;8.63;;
59169;SDS011;52474;52.236;5.114;2023-06-22T11:35:54;12.95;;;8.45;;
59169;SDS011;52474;52.236;5.114;2023-06-22T11:38:21;11.73;;;9.68;;
59169;SDS011;52474;52.236;5.114;2023-06-22T11:40:47;14.55;;;10.40;;
59169;SDS011;52474;52.236;5.114;2023-06-22T11:43:13;15.07;;;10.57;;
59169;SDS011;52474;52.236;5.114;2023-06-22T11:45:40;15.45;;;11.48;;
59169;SDS011;52474;52.236;5.114;2023-06-22T11:48:06;17.02;;;12.73;;
59169;SDS011;52474;52.236;5.114;2023-06-22T11:50:32;12.48;;;11.00;;
59169;SDS011;52474;52.236;5.114;2023-06-22T11:53:04;13.75;;;11.43;;
59169;SDS011;52474;52.236;5.114;2023-06-22T11:55:29;12.70;;;10.00;;
59169;SDS011;52474;52.236;5.114;2023-06-22T11:57:56;13.75;;;10.73;;
59169;SDS011;52474;52.236;5.114;2023-06-22T12:00:25;12.10;;;9.95;;
59169;SDS011;52474;52.236;5.114;2023-06-22T12:02:51;15.68;;;9.68;;
59169;SDS011;52474;52.236;5.114;2023-06-22T12:05:20;10.93;;;9.15;;
59169;SDS011;52474;52.236;5.114;2023-06-22T12:07:49;12.15;;;9.60;;
59169;SDS011;52474;52.236;5.114;2023-06-22T12:10:15;10.18;;;7.57;;
59169;SDS011;52474;52.236;5.114;2023-06-22T12:12:42;10.23;;;7.45;;
59169;SDS011;52474;52.236;5.114;2023-06-22T12:15:08;11.60;;;7.53;;
59169;SDS011;52474;52.236;5.114;2023-06-22T12:17:35;13.13;;;9.52;;
59169;SDS011;52474;52.236;5.114;2023-06-22T12:20:01;12.95;;;10.35;;
59169;SDS011;52474;52.236;5.114;2023-06-22T12:22:31;12.20;;;10.75;;
59169;SDS011;52474;52.236;5.114;2023-06-22T12:24:57;16.55;;;11.80;;
59169;SDS011;52474;52.236;5.114;2023-06-22T12:27:23;14.10;;;12.25;;
59169;SDS011;52474;52.236;5.114;2023-06-22T12:29:49;14.68;;;11.90;;
59169;SDS011;52474;52.236;5.114;2023-06-22T12:32:14;13.52;;;11.68;;
59169;SDS011;52474;52.236;5.114;2023-06-22T12:34:43;12.70;;;11.32;;
59169;SDS011;52474;52.236;5.114;2023-06-22T12:37:10;11.70;;;10.30;;
59169;SDS011;52474;52.236;5.114;2023-06-22T12:39:36;15.63;;;12.27;;
59169;SDS011;52474;52.236;5.114;2023-06-22T12:42:02;13.57;;;12.13;;
59169;SDS011;52474;52.236;5.114;2023-06-22T12:44:28;14.73;;;12.13;;
59169;SDS011;52474;52.236;5.114;2023-06-22T12:46:53;16.25;;;12.63;;
59169;SDS011;52474;52.236;5.114;2023-06-22T12:49:19;13.60;;;11.73;;
59169;SDS011;52474;52.236;5.114;2023-06-22T12:51:45;12.45;;;10.80;;
59169;SDS011;52474;52.236;5.114;2023-06-22T12:54:11;11.77;;;10.15;;
59169;SDS011;52474;52.236;5.114;2023-06-22T12:56:37;12.35;;;9.88;;
59169;SDS011;52474;52.236;5.114;2023-06-22T12:59:04;10.35;;;9.02;;
59169;SDS011;52474;52.236;5.114;2023-06-22T13:01:30;8.93;;;7.75;;
59169;SDS011;52474;52.236;5.114;2023-06-22T13:03:57;9.85;;;6.97;;
59169;SDS011;52474;52.236;5.114;2023-06-22T13:06:24;8.68;;;6.70;;
59169;SDS011;52474;52.236;5.114;2023-06-22T13:08:50;8.40;;;6.43;;
59169;SDS011;52474;52.236;5.114;2023-06-22T13:11:15;7.75;;;6.68;;
59169;SDS011;52474;52.236;5.114;2023-06-22T13:13:41;8.93;;;6.38;;
59169;SDS011;52474;52.236;5.114;2023-06-22T13:16:07;8.27;;;6.82;;
59169;SDS011;52474;52.236;5.114;2023-06-22T13:18:33;9.38;;;6.93;;
59169;SDS011;52474;52.236;5.114;2023-06-22T13:21:04;8.32;;;7.28;;
59169;SDS011;52474;52.236;5.114;2023-06-22T13:23:30;8.60;;;6.68;;
59169;SDS011;52474;52.236;5.114;2023-06-22T13:25:57;9.40;;;6.82;;
59169;SDS011;52474;52.236;5.114;2023-06-22T13:28:23;10.13;;;7.03;;
59169;SDS011;52474;52.236;5.114;2023-06-22T13:30:49;11.00;;;7.03;;
59169;SDS011;52474;52.236;5.114;2023-06-22T13:33:38;11.10;;;6.85;;
59169;SDS011;52474;52.236;5.114;2023-06-22T13:36:09;10.07;;;7.45;;
59169;SDS011;52474;52.236;5.114;2023-06-22T13:38:35;10.38;;;8.07;;
59169;SDS011;52474;52.236;5.114;2023-06-22T13:41:04;9.38;;;8.00;;
59169;SDS011;52474;52.236;5.114;2023-06-22T13:43:30;8.93;;;7.90;;
59169;SDS011;52474;52.236;5.114;2023-06-22T13:45:55;9.45;;;7.70;;
59169;SDS011;52474;52.236;5.114;2023-06-22T13:48:21;10.50;;;7.63;;
59169;SDS011;52474;52.236;5.114;2023-06-22T13:50:48;8.93;;;7.60;;
59169;SDS011;52474;52.236;5.114;2023-06-22T13:53:14;8.95;;;7.65;;
59169;SDS011;52474;52.236;5.114;2023-06-22T13:55:40;10.43;;;7.80;;
59169;SDS011;52474;52.236;5.114;2023-06-22T13:58:06;11.85;;;9.55;;
59169;SDS011;52474;52.236;5.114;2023-06-22T14:00:32;9.35;;;8.35;;
59169;SDS011;52474;52.236;5.114;2023-06-22T14:02:58;11.95;;;8.43;;
59169;SDS011;52474;52.236;5.114;2023-06-22T14:05:23;9.57;;;8.57;;
59169;SDS011;52474;52.236;5.114;2023-06-22T14:07:49;9.52;;;8.52;;
59169;SDS011;52474;52.236;5.114;2023-06-22T14:10:15;12.57;;;9.55;;
59169;SDS011;52474;52.236;5.114;2023-06-22T14:12:40;12.57;;;8.90;;
59169;SDS011;52474;52.236;5.114;2023-06-22T14:15:06;13.60;;;10.10;;
59169;SDS011;52474;52.236;5.114;2023-06-22T14:17:32;14.18;;;10.90;;
59169;SDS011;52474;52.236;5.114;2023-06-22T14:19:58;15.73;;;11.52;;
59169;SDS011;52474;52.236;5.114;2023-06-22T14:22:23;14.93;;;11.57;;
59169;SDS011;52474;52.236;5.114;2023-06-22T14:24:49;16.10;;;11.65;;
59169;SDS011;52474;52.236;5.114;2023-06-22T14:27:15;15.60;;;11.98;;
59169;SDS011;52474;52.236;5.114;2023-06-22T14:29:41;15.48;;;12.75;;
59169;SDS011;52474;52.236;5.114;2023-06-22T14:32:07;16.48;;;12.30;;
59169;SDS011;52474;52.236;5.114;2023-06-22T14:34:34;13.15;;;11.32;;
59169;SDS011;52474;52.236;5.114;2023-06-22T14:37:05;15.23;;;12.60;;
59169;SDS011;52474;52.236;5.114;2023-06-22T14:39:32;15.68;;;12.75;;
59169;SDS011;52474;52.236;5.114;2023-06-22T14:41:58;15.57;;;12.10;;
59169;SDS011;52474;52.236;5.114;2023-06-22T14:44:26;14.88;;;11.80;;